Time;durP1;ratioP1;P1;durP2;ratioP2;P2;SDS_P1;SDS_P2;PMS_P1;PMS_P2;Temp;Humidity;BMP_temperature;BMP_pressure;BME280_temperature;BME280_humidity;BME280_pressure;Samples;Min_cycle;Max_cycle;Signal;HPM_P1;HPM_P2
2022/12/03 07:20:23;;;;;;;16.80;6.40;;;;;;;3.00;88.75;101920.33;105295;1310;548518;-69
2022/12/03 07:22:50;;;;;;;17.30;6.80;;;;;;;5.01;79.09;101911.39;105516;1310;21962;-70
2022/12/03 07:25:15;;;;;;;17.10;6.10;;;;;;;5.32;76.12;101911.92;105420;1313;21940;-69
2022/12/03 07:27:41;;;;;;;13.90;6.40;;;;;;;5.46;75.24;101912.23;105394;1313;21963;-69
2022/12/03 07:30:08;;;;;;;17.40;7.90;;;;;;;5.68;74.44;101909.65;105379;1313;23722;-69
2022/12/03 07:32:33;;;;;;;15.20;5.20;;;;;;;5.77;73.71;101909.56;105326;1310;382557;-69
2022/12/03 07:35:00;;;;;;;15.50;6.20;;;;;;;5.90;73.36;101905.48;105675;1309;21970;-69
2022/12/03 07:37:25;;;;;;;11.50;3.90;;;;;;;6.10;72.51;101906.08;105731;1309;23639;-68
2022/12/03 07:39:51;;;;;;;6.80;3.20;;;;;;;6.35;71.59;101903.19;105676;1309;21966;-69
2022/12/03 07:42:17;;;;;;;12.80;3.00;;;;;;;6.38;71.08;101900.84;105756;1309;21969;-68
2022/12/03 07:44:42;;;;;;;6.00;2.60;;;;;;;6.47;70.90;101904.77;105654;1309;21984;-69
2022/12/03 07:47:08;;;;;;;8.60;3.10;;;;;;;6.52;70.42;101905.44;105991;1306;23159;-70
2022/12/03 07:49:34;;;;;;;9.40;2.90;;;;;;;6.62;69.93;101904.50;105862;1306;21948;-69
2022/12/03 07:51:59;;;;;;;6.70;2.70;;;;;;;6.77;69.68;101907.70;105812;1305;23110;-69
2022/12/03 07:54:26;;;;;;;8.60;2.50;;;;;;;6.88;69.26;101905.55;105781;1306;22433;-69
2022/12/03 07:56:51;;;;;;;10.10;3.00;;;;;;;6.92;68.78;101902.52;105786;1306;22005;-69
2022/12/03 07:59:17;;;;;;;7.00;2.70;;;;;;;6.92;68.55;101903.73;105709;1306;21959;-70
2022/12/03 08:01:43;;;;;;;10.80;2.60;;;;;;;6.92;68.34;101907.05;105781;1306;21973;-69
2022/12/03 08:04:10;;;;;;;7.40;2.60;;;;;;;6.96;68.34;101907.33;105736;1306;21971;-70
2022/12/03 08:06:36;;;;;;;7.70;2.80;;;;;;;7.00;68.43;101910.25;105773;1306;21950;-69
2022/12/03 08:09:01;;;;;;;7.10;2.40;;;;;;;7.02;68.38;101913.59;105749;1305;23747;-70
2022/12/03 08:11:28;;;;;;;8.70;2.40;;;;;;;7.01;68.48;101916.38;105725;1306;21964;-70
2022/12/03 08:13:54;;;;;;;8.10;2.30;;;;;;;7.07;68.39;101920.55;105724;1306;21958;-69
2022/12/03 08:16:20;;;;;;;9.50;3.10;;;;;;;7.20;68.15;101917.41;105826;1306;21968;-69
2022/12/03 08:18:46;;;;;;;6.10;2.60;;;;;;;7.32;67.60;101918.58;105759;1306;21957;-70
2022/12/03 08:21:14;;;;;;;8.80;2.70;;;;;;;7.37;67.20;101921.34;105717;1306;21958;-70
2022/12/03 08:23:39;;;;;;;6.20;2.40;;;;;;;7.38;67.04;101925.20;105782;1305;22315;-70
2022/12/03 08:26:18;;;;;;;6.70;2.60;;;;;;;7.42;66.88;101928.98;105065;1306;1002460;-69
2022/12/03 08:28:44;;;;;;;8.00;2.60;;;;;;;7.44;66.69;101924.13;105656;1306;23704;-69
2022/12/03 08:31:19;;;;;;;9.30;2.80;;;;;;;7.49;66.68;101921.98;105680;1306;21973;-69
2022/12/03 08:33:49;;;;;;;12.30;3.30;;;;;;;7.44;66.49;101921.86;105787;1305;21965;-69
2022/12/03 08:36:21;;;;;;;9.00;2.90;;;;;;;7.23;67.22;101924.80;105824;1305;21963;-69
2022/12/03 08:38:52;;;;;;;8.90;3.70;;;;;;;7.22;67.43;101922.16;105837;1306;21972;-70
2022/12/03 08:42:40;;;;;;;;;;;;;;;7.20;67.25;101923.86;105789;1306;21979;-69
2022/12/03 08:44:14;;;;;;;8.00;3.00;;;;;;;7.36;66.58;101924.45;105767;1302;22004;-69
2022/12/03 08:46:39;;;;;;;7.40;2.80;;;;;;;7.50;66.34;101928.83;105807;1301;21959;-70
2022/12/03 08:49:05;;;;;;;8.30;2.70;;;;;;;7.61;65.90;101928.90;105630;1306;21963;-70
2022/12/03 08:51:31;;;;;;;8.90;3.00;;;;;;;7.64;65.59;101930.20;105736;1306;21960;-71
2022/12/03 08:54:04;;;;;;;8.90;2.90;;;;;;;7.66;65.23;101927.82;105775;1306;21988;-69
2022/12/03 08:56:31;;;;;;;9.00;3.30;;;;;;;7.68;65.29;101930.31;105779;1305;21967;-70
2022/12/03 08:59:18;;;;;;;9.20;3.90;;;;;;;7.68;64.97;101929.10;105649;1305;21965;-70
2022/12/03 09:01:44;;;;;;;9.00;3.00;;;;;;;7.63;65.21;101932.12;105735;1305;21995;-69
2022/12/03 09:04:15;;;;;;;7.80;3.40;;;;;;;7.66;65.27;101931.33;105709;1304;21958;-69
2022/12/03 09:06:40;;;;;;;6.30;2.90;;;;;;;7.64;65.24;101933.71;105776;1305;21967;-69
2022/12/03 09:09:06;;;;;;;11.80;3.00;;;;;;;7.52;65.65;101931.48;105809;1305;21972;-70
2022/12/03 09:11:32;;;;;;;8.40;3.20;;;;;;;7.52;65.55;101929.39;105668;1306;23080;-69
2022/12/03 09:13:58;;;;;;;12.20;3.90;;;;;;;7.46;65.89;101929.77;105692;1305;21965;-69
2022/12/03 09:16:23;;;;;;;9.70;3.50;;;;;;;7.43;65.85;101928.82;105766;1302;21981;-69
2022/12/03 09:18:49;;;;;;;6.60;2.90;;;;;;;7.45;65.65;101928.52;105757;1306;21948;-70
2022/12/03 09:21:14;;;;;;;10.10;3.20;;;;;;;7.46;65.58;101924.35;105762;1305;21943;-70
2022/12/03 09:23:40;;;;;;;7.20;2.90;;;;;;;7.47;65.44;101924.36;105739;1305;24030;-71
2022/12/03 09:26:06;;;;;;;8.00;3.00;;;;;;;7.54;65.28;101924.02;105796;1306;22001;-69
2022/12/03 09:28:32;;;;;;;11.50;3.20;;;;;;;7.56;65.11;101922.33;105717;1306;21961;-69
2022/12/03 09:30:57;;;;;;;9.20;3.50;;;;;;;7.66;64.87;101919.09;105648;1306;21955;-69
2022/12/03 09:33:23;;;;;;;13.20;3.20;;;;;;;7.72;64.34;101918.52;105636;1306;22256;-70
2022/12/03 09:35:49;;;;;;;10.70;3.20;;;;;;;7.77;64.29;101918.30;105647;1306;21973;-70
2022/12/03 09:38:14;;;;;;;9.30;3.00;;;;;;;7.88;64.17;101916.29;105811;1306;21963;-69
2022/12/03 09:40:40;;;;;;;9.10;3.10;;;;;;;8.10;63.69;101914.85;105811;1306;21956;-71
2022/12/03 09:43:06;;;;;;;7.60;2.50;;;;;;;8.26;63.35;101914.87;105798;1306;21972;-70
2022/12/03 09:45:32;;;;;;;18.90;3.70;;;;;;;8.34;63.17;101912.93;105659;1306;21969;-70
2022/12/03 09:47:57;;;;;;;12.80;3.40;;;;;;;8.29;63.08;101915.63;105658;1306;22863;-69
2022/12/03 09:50:24;;;;;;;5.80;2.90;;;;;;;8.10;63.57;101922.38;104978;1307;1002416;-70
2022/12/03 09:52:50;;;;;;;12.30;3.30;;;;;;;7.98;63.94;101926.13;105682;1306;21965;-69
2022/12/03 09:55:19;;;;;;;6.40;3.40;;;;;;;7.87;64.40;101929.71;105673;1306;21980;-70
2022/12/03 09:57:45;;;;;;;7.50;3.30;;;;;;;7.90;64.27;101930.67;105649;1307;21957;-69
2022/12/03 10:00:19;;;;;;;6.30;3.30;;;;;;;8.01;64.12;101934.05;105645;1306;21986;-69
2022/12/03 10:02:46;;;;;;;11.40;3.80;;;;;;;8.12;63.95;101928.20;105769;1307;23080;-69
2022/12/03 10:05:12;;;;;;;9.00;3.90;;;;;;;8.19;63.69;101928.34;105709;1306;21972;-70
2022/12/03 10:07:38;;;;;;;10.00;3.70;;;;;;;8.18;63.86;101927.80;105070;1306;1002618;-71
2022/12/03 10:10:05;;;;;;;9.00;4.30;;;;;;;8.16;63.86;101927.94;105730;1306;21954;-70
2022/12/03 10:12:31;;;;;;;14.80;4.30;;;;;;;8.17;63.91;101926.73;105714;1306;21985;-69
2022/12/03 10:14:57;;;;;;;9.20;4.00;;;;;;;8.25;63.73;101929.52;105686;1306;23634;-69
2022/12/03 10:17:22;;;;;;;8.60;3.60;;;;;;;8.38;63.56;101926.33;105620;1306;21962;-69
2022/12/03 10:19:48;;;;;;;8.10;3.80;;;;;;;8.48;63.21;101927.05;105657;1306;21979;-69
2022/12/03 10:22:14;;;;;;;14.00;4.00;;;;;;;8.45;63.36;101923.31;105690;1306;22000;-69
2022/12/03 10:24:39;;;;;;;18.60;3.90;;;;;;;8.47;63.39;101926.16;105683;1307;23770;-70
2022/12/03 10:27:30;;;;;;;11.00;4.30;;;;;;;8.50;63.31;101923.27;105812;1306;21958;-70
2022/12/03 10:29:56;;;;;;;;;;;;;;;8.53;63.34;101925.97;105701;1309;21979;-70
2022/12/03 10:32:43;;;;;;;12.20;5.00;;;;;;;8.52;63.53;101928.73;105757;1303;21981;-71
2022/12/03 10:35:14;;;;;;;12.80;6.00;;;;;;;8.52;63.74;101929.61;105822;1307;22048;-70
2022/12/03 10:37:57;;;;;;;9.40;4.80;;;;;;;8.54;63.58;101931.42;105834;1306;21957;-70
2022/12/03 10:40:26;;;;;;;8.40;4.40;;;;;;;8.51;63.50;101934.66;105851;1305;21958;-71
2022/12/03 10:42:51;;;;;;;12.80;4.90;;;;;;;8.60;63.45;101935.71;105756;1306;21959;-69
2022/12/03 10:45:21;;;;;;;16.30;5.20;;;;;;;8.67;63.25;101942.52;105777;1306;22196;-68
2022/12/03 10:48:03;;;;;;;18.90;6.00;;;;;;;8.74;63.45;101948.96;105841;1302;21939;-69
2022/12/03 10:50:29;;;;;;;12.10;5.20;;;;;;;8.89;63.88;101950.67;105749;1306;21967;-62
2022/12/03 10:52:55;;;;;;;14.20;4.50;;;;;;;9.03;63.70;101953.73;106492;1289;23118;-66
2022/12/03 10:55:21;;;;;;;8.90;5.20;;;;;;;9.09;63.37;101954.02;105675;1309;21975;-66
2022/12/03 19:17:38;;;;;;;20.10;8.50;;;;;;;1.65;86.29;102286.74;105222;1310;547822;-69
2022/12/03 19:20:46;;;;;;;19.00;8.90;;;;;;;4.03;75.91;102276.73;105289;1313;21982;-68
2022/12/03 19:23:11;;;;;;;19.30;9.80;;;;;;;4.60;72.61;102268.30;105351;1312;21968;-68
2022/12/03 19:25:37;;;;;;;24.70;10.40;;;;;;;4.98;70.90;102269.67;105362;1312;21993;-68
2022/12/03 19:28:03;;;;;;;18.80;9.10;;;;;;;5.21;69.86;102273.91;105323;1312;21950;-69
2022/12/03 19:30:29;;;;;;;16.30;8.20;;;;;;;5.37;68.85;102271.95;105333;1309;197554;-69
2022/12/03 19:32:55;;;;;;;21.50;9.50;;;;;;;5.44;68.04;102269.41;105672;1307;21945;-68
2022/12/03 19:35:21;;;;;;;14.60;6.30;;;;;;;5.42;67.91;102269.34;105649;1310;21986;-69
2022/12/03 19:37:48;;;;;;;15.50;7.10;;;;;;;5.81;67.05;102269.08;105661;1310;22003;-68
2022/12/03 19:40:14;;;;;;;11.60;5.70;;;;;;;5.75;67.10;102269.77;105666;1310;21979;-69
2022/12/03 19:42:40;;;;;;;13.90;5.90;;;;;;;5.96;66.47;102264.96;105714;1308;21944;-68
2022/12/03 19:45:07;;;;;;;17.80;7.00;;;;;;;6.22;65.65;102265.21;104972;1307;1004000;-69
2022/12/03 19:47:35;;;;;;;12.30;5.70;;;;;;;6.00;65.84;102266.50;105651;1309;21966;-69
2022/12/03 19:50:01;;;;;;;20.80;8.30;;;;;;;5.92;66.27;102268.98;105471;1304;21975;-68
2022/12/03 19:52:27;;;;;;;19.50;7.70;;;;;;;6.06;66.13;102270.02;105665;1307;22057;-69
2022/12/03 19:54:52;;;;;;;16.30;6.80;;;;;;;6.11;65.61;102272.65;105691;1307;22040;-69
2022/12/03 19:57:18;;;;;;;13.70;6.00;;;;;;;6.03;65.54;102275.85;105725;1308;21985;-69
2022/12/03 19:59:44;;;;;;;11.00;5.80;;;;;;;6.22;64.78;102276.21;105762;1309;21971;-69
2022/12/03 20:02:10;;;;;;;13.40;6.00;;;;;;;6.05;65.21;102278.23;105779;1307;21957;-69
2022/12/03 20:04:36;;;;;;;11.70;5.00;;;;;;;6.44;64.81;102270.88;105667;1309;23081;-70
2022/12/03 20:07:04;;;;;;;12.40;5.60;;;;;;;6.57;64.49;102275.51;105793;1307;21976;-71
2022/12/03 20:09:30;;;;;;;13.50;6.70;;;;;;;6.54;64.25;102274.01;105728;1306;22014;-71
2022/12/03 20:11:56;;;;;;;13.10;5.70;;;;;;;6.21;64.69;102278.78;105671;1307;22011;-70
2022/12/03 20:14:24;;;;;;;10.90;5.90;;;;;;;6.01;65.25;102283.27;105763;1307;22006;-69
2022/12/03 20:16:49;;;;;;;11.40;5.70;;;;;;;6.16;64.98;102285.04;105667;1306;22373;-70
2022/12/03 20:19:15;;;;;;;11.10;5.30;;;;;;;5.77;65.28;102285.33;105649;1304;21974;-71
2022/12/03 20:21:42;;;;;;;12.10;5.80;;;;;;;5.66;65.84;102287.17;105650;1307;23788;-70
2022/12/03 20:24:11;;;;;;;14.10;5.70;;;;;;;5.64;65.68;102287.27;105654;1305;23881;-71
2022/12/03 20:26:37;;;;;;;13.60;6.20;;;;;;;6.03;65.00;102283.19;105661;1302;22005;-70
2022/12/03 20:29:03;;;;;;;14.60;5.30;;;;;;;6.28;64.16;102281.64;105597;1307;21971;-70
2022/12/03 20:31:30;;;;;;;10.00;4.90;;;;;;;6.25;63.90;102284.69;105644;1307;24396;-69
2022/12/03 20:33:57;;;;;;;11.80;5.40;;;;;;;6.38;63.90;102283.76;105699;1301;23627;-69
2022/12/03 20:36:23;;;;;;;9.90;5.20;;;;;;;6.43;63.31;102283.77;105798;1307;21987;-69
2022/12/03 20:38:56;;;;;;;10.20;5.10;;;;;;;6.39;63.07;102286.59;105743;1307;21979;-70
2022/12/03 20:41:22;;;;;;;10.80;5.10;;;;;;;6.39;63.23;102287.61;105695;1307;24328;-70
2022/12/03 20:43:48;;;;;;;10.20;5.00;;;;;;;6.27;63.61;102287.54;105669;1307;22000;-69
2022/12/03 20:46:24;;;;;;;11.70;4.70;;;;;;;6.39;63.53;102287.60;105685;1306;21973;-69
2022/12/03 20:48:50;;;;;;;12.10;5.10;;;;;;;6.43;63.11;102283.59;105733;1307;21976;-70
2022/12/03 20:51:18;;;;;;;7.90;4.10;;;;;;;6.38;63.48;102287.07;105678;1307;21977;-69
2022/12/03 20:53:44;;;;;;;7.60;3.90;;;;;;;6.35;63.33;102290.28;105727;1309;21974;-70
2022/12/03 20:56:10;;;;;;;9.60;4.40;;;;;;;6.39;63.65;102292.67;105694;1307;22005;-70
2022/12/03 20:58:38;;;;;;;9.50;4.60;;;;;;;6.42;63.25;102294.86;105718;1309;21982;-70
2022/12/03 21:01:19;;;;;;;8.90;4.30;;;;;;;6.40;63.32;102293.94;105711;1307;21963;-71
2022/12/03 21:03:44;;;;;;;6.80;3.60;;;;;;;6.37;62.87;102291.41;105678;1309;21989;-70
2022/12/03 21:06:11;;;;;;;13.40;4.40;;;;;;;6.51;62.86;102293.77;105649;1305;21952;-69
2022/12/03 21:08:37;;;;;;;8.80;4.40;;;;;;;6.74;62.11;102290.58;105705;1307;21966;-70
2022/12/03 21:11:07;;;;;;;9.60;4.20;;;;;;;6.67;62.22;102291.89;105701;1308;22049;-69
2022/12/03 21:13:33;;;;;;;;;;;;;;;6.67;62.28;102290.69;105679;1308;23691;-68
2022/12/03 21:16:04;;;;;;;7.10;3.60;;;;;;;6.67;62.17;102289.98;105649;1309;21971;-70
2022/12/03 21:18:30;;;;;;;9.40;4.20;;;;;;;6.67;62.16;102294.36;105755;1304;22002;-70
2022/12/03 21:20:57;;;;;;;9.70;4.50;;;;;;;6.69;62.18;102294.95;105712;1308;21978;-70
2022/12/03 21:23:23;;;;;;;9.40;4.00;;;;;;;6.61;62.34;102294.65;105730;1303;22091;-70
2022/12/03 21:25:49;;;;;;;11.10;4.10;;;;;;;6.57;62.07;102296.95;105671;1308;21964;-70
2022/12/03 21:28:14;;;;;;;11.10;4.20;;;;;;;6.54;62.41;102300.90;105666;1308;21957;-70
2022/12/03 21:30:40;;;;;;;10.10;4.00;;;;;;;6.55;62.37;102301.45;105708;1304;21985;-70
2022/12/03 21:33:06;;;;;;;7.40;3.80;;;;;;;6.56;62.11;102298.84;105685;1309;21972;-70
2022/12/03 21:35:35;;;;;;;9.50;4.40;;;;;;;6.43;62.23;102296.14;105676;1308;21967;-69
2022/12/03 21:38:03;;;;;;;7.60;3.70;;;;;;;6.22;62.88;102296.77;105705;1304;21982;-70
2022/12/03 21:40:29;;;;;;;7.90;4.00;;;;;;;6.18;63.25;102295.77;105659;1308;21961;-69
2022/12/03 21:42:55;;;;;;;8.90;3.60;;;;;;;6.16;63.31;102295.68;105574;1309;22873;-69
2022/12/03 21:45:23;;;;;;;12.50;4.20;;;;;;;6.19;63.26;102296.50;105709;1305;22007;-70
2022/12/03 21:47:49;;;;;;;9.30;4.40;;;;;;;6.26;63.03;102298.65;105710;1307;21969;-70
2022/12/03 21:50:15;;;;;;;9.10;4.20;;;;;;;6.31;62.84;102296.41;105688;1308;21969;-71
2022/12/03 21:52:41;;;;;;;10.40;4.50;;;;;;;6.24;62.80;102296.70;105678;1308;21995;-70
2022/12/03 21:55:07;;;;;;;6.20;3.20;;;;;;;6.05;62.99;102298.42;105691;1308;21980;-70
2022/12/03 21:57:36;;;;;;;5.70;3.10;;;;;;;6.17;62.77;102295.73;105723;1307;21970;-69
2022/12/03 22:00:06;;;;;;;7.60;3.70;;;;;;;6.10;62.60;102291.48;105738;1308;21975;-70
2022/12/03 22:02:38;;;;;;;6.20;4.10;;;;;;;6.02;63.16;102298.15;105666;1307;21963;-70
2022/12/03 22:05:04;;;;;;;6.80;3.60;;;;;;;6.14;63.36;102295.80;105709;1301;21976;-70
2022/12/03 22:07:32;;;;;;;6.10;3.60;;;;;;;6.32;62.63;102293.67;105714;1308;21986;-70
2022/12/03 22:09:58;;;;;;;10.40;4.00;;;;;;;6.36;62.25;102296.58;105669;1307;22008;-70
2022/12/03 22:12:23;;;;;;;11.70;4.50;;;;;;;6.35;62.28;102299.52;105676;1308;21961;-70
2022/12/03 22:14:49;;;;;;;8.80;3.80;;;;;;;6.29;62.31;102305.21;105721;1308;21970;-70
2022/12/03 22:17:15;;;;;;;10.50;3.40;;;;;;;6.23;62.43;102306.27;105661;1308;22019;-70
2022/12/03 22:19:41;;;;;;;12.80;4.50;;;;;;;6.21;62.27;102309.30;105706;1308;21967;-69
2022/12/03 22:22:09;;;;;;;9.20;4.10;;;;;;;6.24;62.16;102312.37;105800;1307;21970;-70
2022/12/03 22:24:35;;;;;;;6.10;3.30;;;;;;;6.23;62.54;102309.86;105761;1307;21971;-70
2022/12/03 22:27:02;;;;;;;7.00;3.70;;;;;;;6.25;62.59;102307.02;105736;1308;22438;-70
2022/12/03 22:29:28;;;;;;;7.50;4.00;;;;;;;6.30;62.30;102307.33;105680;1308;21964;-70
2022/12/03 22:31:54;;;;;;;9.40;3.30;;;;;;;6.33;62.42;102306.77;105655;1308;22017;-70
2022/12/03 22:34:20;;;;;;;11.60;4.60;;;;;;;6.48;61.62;102302.77;105703;1307;22006;-70
2022/12/03 22:36:45;;;;;;;10.00;3.90;;;;;;;6.47;61.70;102302.20;105727;1308;21970;-70
2022/12/03 22:39:11;;;;;;;8.80;3.50;;;;;;;6.31;62.23;102300.59;105721;1307;22436;-70
2022/12/03 22:41:38;;;;;;;7.30;3.40;;;;;;;6.38;62.08;102297.17;105738;1304;21979;-68
2022/12/03 22:44:04;;;;;;;7.80;3.60;;;;;;;6.44;61.99;102294.60;105801;1307;23747;-70
